Time;durP1;ratioP1;P1;durP2;ratioP2;P2;SDS_P1;SDS_P2;PMS_P1;PMS_P2;Temp;Humidity;BMP_temperature;BMP_pressure;BME280_temperature;BME280_humidity;BME280_pressure;Samples;Min_cycle;Max_cycle;Signal;HPM_P1;HPM_P2
2023/07/25 00:01:05;;;;;;;0.10;0.10;;;;;;;15.83;100.00;98062.94;5095631;28;20227;-56
2023/07/25 00:03:52;;;;;;;0.13;0.13;;;;;;;15.79;100.00;98066.91;5095758;28;20183;-56
2023/07/25 00:06:39;;;;;;;0.10;0.10;;;;;;;15.79;100.00;98061.56;5095464;28;20241;-56
2023/07/25 00:09:26;;;;;;;0.10;0.10;;;;;;;16.06;100.00;98065.91;5095561;28;20183;-56
2023/07/25 00:12:13;;;;;;;0.17;0.17;;;;;;;15.84;100.00;98056.59;5095614;28;20179;-56
2023/07/25 00:15:00;;;;;;;0.10;0.10;;;;;;;15.87;100.00;98056.28;5095345;28;20309;-56
2023/07/25 00:17:48;;;;;;;0.10;0.10;;;;;;;15.85;100.00;98068.97;5095428;28;20195;-56
2023/07/25 00:20:35;;;;;;;0.10;0.10;;;;;;;15.93;100.00;98074.34;5095234;28;20219;-56
2023/07/25 00:23:22;;;;;;;0.10;0.10;;;;;;;15.71;100.00;98059.69;5095135;28;20672;-56
2023/07/25 00:26:09;;;;;;;0.10;0.10;;;;;;;15.78;100.00;98070.59;5094038;28;20195;-56
2023/07/25 00:28:56;;;;;;;0.10;0.10;;;;;;;15.86;100.00;98065.28;5095334;28;20254;-56
2023/07/25 00:31:42;;;;;;;0.10;0.10;;;;;;;15.76;100.00;98069.06;5095000;28;20292;-56
2023/07/25 00:34:31;;;;;;;0.10;0.10;;;;;;;15.96;100.00;98074.03;5108253;28;20226;-56
2023/07/25 00:37:18;;;;;;;0.10;0.10;;;;;;;15.53;100.00;98069.53;5095098;28;20200;-56
2023/07/25 00:40:06;;;;;;;0.10;0.10;;;;;;;15.50;100.00;98063.69;5093485;28;20199;-56
2023/07/25 00:42:55;;;;;;;0.10;0.10;;;;;;;15.33;100.00;98070.72;5094957;28;20272;-56
2023/07/25 00:45:42;;;;;;;0.10;0.10;;;;;;;15.28;100.00;98059.69;5108339;28;20191;-56
2023/07/25 00:48:30;;;;;;;0.10;0.10;;;;;;;15.38;100.00;98057.78;5108143;28;20186;-56
2023/07/25 00:51:18;;;;;;;0.10;0.10;;;;;;;15.27;100.00;98058.03;5108191;28;20661;-56
2023/07/25 00:54:06;;;;;;;0.10;0.10;;;;;;;15.22;100.00;98058.47;5094698;28;20207;-56
2023/07/25 00:56:53;;;;;;;0.10;0.10;;;;;;;15.03;100.00;98059.47;5093842;28;20202;-56
2023/07/25 00:59:39;;;;;;;0.10;0.10;;;;;;;15.10;100.00;98054.38;5108044;28;20198;-56
2023/07/25 01:02:26;;;;;;;0.10;0.10;;;;;;;15.15;100.00;98054.75;5094301;28;20759;-56
2023/07/25 01:05:13;;;;;;;0.20;0.20;;;;;;;15.37;100.00;98050.75;5094459;28;20191;-56
2023/07/25 01:08:02;;;;;;;0.10;0.10;;;;;;;15.16;100.00;98064.44;5093458;28;20309;-56
2023/07/25 01:10:49;;;;;;;0.20;0.20;;;;;;;15.06;100.00;98067.19;5093044;28;20191;-56
2023/07/25 01:13:36;;;;;;;0.10;0.10;;;;;;;15.11;100.00;98054.22;5094256;28;20233;-56
2023/07/25 01:16:24;;;;;;;0.10;0.10;;;;;;;15.37;100.00;98056.94;5107742;28;20287;-56
2023/07/25 01:19:12;;;;;;;0.10;0.10;;;;;;;15.41;100.00;98054.78;5107696;28;20238;-56
2023/07/25 01:21:59;;;;;;;0.10;0.10;;;;;;;15.68;100.00;98048.50;5094183;28;20218;-56
2023/07/25 01:24:49;;;;;;;0.10;0.10;;;;;;;15.50;100.00;98035.16;5092763;28;20618;-56
2023/07/25 01:27:35;;;;;;;0.20;0.20;;;;;;;15.22;100.00;98039.81;5094079;28;20190;-56
2023/07/25 01:30:23;;;;;;;0.10;0.10;;;;;;;15.07;100.00;98044.88;5107476;28;20250;-56
2023/07/25 01:33:09;;;;;;;0.13;0.13;;;;;;;15.07;100.00;98034.19;5093991;28;20355;-56
2023/07/25 01:35:56;;;;;;;0.10;0.10;;;;;;;14.96;100.00;98042.44;5053674;28;20208;-56
2023/07/25 01:38:43;;;;;;;0.10;0.10;;;;;;;15.11;100.00;98040.88;5052582;28;20220;-56
2023/07/25 01:41:31;;;;;;;0.10;0.10;;;;;;;15.03;100.00;98040.81;5052178;28;20224;-56
2023/07/25 01:44:19;;;;;;;0.10;0.10;;;;;;;15.15;100.00;98041.41;5053636;28;20266;-56
2023/07/25 01:47:06;;;;;;;0.10;0.10;;;;;;;14.88;100.00;98029.03;5053488;28;20196;-56
2023/07/25 01:49:53;;;;;;;0.10;0.10;;;;;;;15.06;100.00;98027.19;5053460;28;20220;-56
2023/07/25 01:52:40;;;;;;;0.10;0.10;;;;;;;14.95;100.00;98030.06;5052445;28;20208;-56
2023/07/25 01:55:26;;;;;;;0.10;0.10;;;;;;;15.05;100.00;98024.66;5052099;28;20188;-56
2023/07/25 01:58:15;;;;;;;0.10;0.10;;;;;;;14.99;100.00;98027.97;5052393;28;20188;-56
2023/07/25 02:01:02;;;;;;;0.10;0.10;;;;;;;15.13;100.00;98027.38;5052176;28;20251;-56
2023/07/25 02:03:49;;;;;;;0.10;0.10;;;;;;;15.38;100.00;98028.44;5053041;28;20200;-56
2023/07/25 02:06:35;;;;;;;0.10;0.10;;;;;;;15.39;100.00;98025.59;5053168;28;20251;-56
2023/07/25 02:09:22;;;;;;;0.10;0.10;;;;;;;15.30;100.00;98012.34;5052119;28;20315;-56
2023/07/25 02:12:09;;;;;;;0.10;0.10;;;;;;;15.33;100.00;98014.69;5053211;28;20199;-56
2023/07/25 02:14:57;;;;;;;0.10;0.10;;;;;;;15.06;100.00;98021.03;5051981;28;20215;-56
2023/07/25 02:17:44;;;;;;;0.10;0.10;;;;;;;15.06;100.00;98032.53;5052147;28;20315;-56
2023/07/25 02:20:31;;;;;;;0.20;0.20;;;;;;;15.47;100.00;98030.16;5052032;28;20216;-56
2023/07/25 02:23:18;;;;;;;0.10;0.10;;;;;;;15.39;100.00;98020.25;5051608;28;20224;-56
2023/07/25 02:26:05;;;;;;;0.20;0.20;;;;;;;15.28;100.00;98019.69;5050573;28;20199;-56
2023/07/25 02:28:52;;;;;;;0.10;0.10;;;;;;;15.39;100.00;98017.59;5052905;28;20283;-56
2023/07/25 02:31:40;;;;;;;0.10;0.10;;;;;;;15.54;100.00;98015.19;5052848;28;20192;-56
2023/07/25 02:34:27;;;;;;;0.13;0.13;;;;;;;15.35;100.00;98018.91;5072683;28;20226;-56
2023/07/25 02:37:14;;;;;;;0.10;0.10;;;;;;;15.31;100.00;98019.34;5093075;28;20191;-56
2023/07/25 02:40:05;;;;;;;0.10;0.10;;;;;;;15.37;100.00;98026.75;5091654;28;20211;-56
2023/07/25 02:42:51;;;;;;;0.10;0.10;;;;;;;15.38;100.00;98023.09;5092647;28;20218;-56
2023/07/25 02:45:38;;;;;;;0.10;0.10;;;;;;;15.23;100.00;98028.13;5092046;28;20230;-56
2023/07/25 02:48:26;;;;;;;0.10;0.10;;;;;;;15.31;100.00;98025.53;5093027;28;20288;-56
2023/07/25 02:51:14;;;;;;;0.10;0.10;;;;;;;15.27;100.00;98024.19;5091857;28;20191;-56
2023/07/25 02:54:00;;;;;;;0.10;0.10;;;;;;;15.33;100.00;98014.69;5092874;28;20210;-56
2023/07/25 02:56:47;;;;;;;0.10;0.10;;;;;;;15.37;100.00;98018.75;5091583;28;20199;-56
2023/07/25 02:59:34;;;;;;;0.10;0.10;;;;;;;15.35;100.00;98021.56;5106205;28;20195;-56
2023/07/25 03:02:21;;;;;;;0.10;0.10;;;;;;;15.22;100.00;98031.81;5092872;28;20276;-56
2023/07/25 03:05:10;;;;;;;0.10;0.10;;;;;;;15.33;100.00;98033.38;5092870;28;20194;-56
2023/07/25 03:07:57;;;;;;;0.10;0.10;;;;;;;15.27;100.00;98026.84;5092705;28;20195;-57
2023/07/25 03:10:44;;;;;;;0.10;0.10;;;;;;;15.30;100.00;98023.03;5104784;28;20187;-56
2023/07/25 03:13:31;;;;;;;0.10;0.10;;;;;;;15.27;100.00;98016.19;5092758;28;20233;-56
2023/07/25 03:16:18;;;;;;;0.10;0.10;;;;;;;15.34;100.00;98016.38;5092923;28;20692;-56
2023/07/25 03:19:05;;;;;;;0.20;0.20;;;;;;;15.31;100.00;98006.84;5096670;28;20269;-56
2023/07/25 03:21:53;;;;;;;0.10;0.10;;;;;;;15.44;100.00;97993.97;5096507;28;20215;-56
2023/07/25 03:24:40;;;;;;;0.10;0.10;;;;;;;15.63;100.00;97979.59;5095219;28;20301;-56
2023/07/25 03:27:27;;;;;;;0.10;0.10;;;;;;;15.67;100.00;97994.28;5096368;28;20199;-56
2023/07/25 03:30:14;;;;;;;0.10;0.10;;;;;;;15.42;100.00;98009.25;5095368;28;20225;-56
2023/07/25 03:33:00;;;;;;;0.10;0.10;;;;;;;15.55;100.00;98014.19;5095199;28;20195;-56
2023/07/25 03:35:47;;;;;;;0.10;0.10;;;;;;;15.51;100.00;98010.16;5096370;28;20288;-56
2023/07/25 03:38:35;;;;;;;0.10;0.10;;;;;;;15.42;100.00;98003.91;5096224;28;20199;-56
2023/07/25 03:41:22;;;;;;;0.10;0.10;;;;;;;15.39;100.00;97985.56;5108104;28;20245;-56
2023/07/25 03:44:09;;;;;;;0.10;0.10;;;;;;;15.39;100.00;97992.75;5096128;28;20191;-56
2023/07/25 03:46:56;;;;;;;0.20;0.20;;;;;;;15.63;100.00;97992.94;5096093;28;20195;-56
2023/07/25 03:49:43;;;;;;;0.10;0.10;;;;;;;15.70;100.00;98001.97;5095816;28;20365;-56
2023/07/25 03:52:30;;;;;;;0.10;0.10;;;;;;;15.50;100.00;98000.47;5095898;28;20233;-56
2023/07/25 03:55:18;;;;;;;0.10;0.10;;;;;;;15.31;100.00;97992.69;5094565;28;20198;-56
2023/07/25 03:58:05;;;;;;;0.10;0.10;;;;;;;15.35;100.00;97968.22;5095651;28;20195;-56
2023/07/25 04:00:52;;;;;;;0.10;0.10;;;;;;;15.43;100.00;97967.41;5094632;28;20199;-56
2023/07/25 04:03:39;;;;;;;0.20;0.20;;;;;;;15.51;100.00;97972.78;5108800;28;20226;-56
2023/07/25 04:06:26;;;;;;;0.10;0.10;;;;;;;15.38;100.00;97964.38;5095625;28;20691;-56
2023/07/25 04:09:13;;;;;;;0.10;0.10;;;;;;;15.36;100.00;97961.88;5109058;28;20216;-56
2023/07/25 04:12:01;;;;;;;0.10;0.10;;;;;;;15.51;100.00;97962.13;5095593;28;20308;-56
2023/07/25 04:14:48;;;;;;;0.10;0.10;;;;;;;15.66;100.00;97960.56;5094988;28;20230;-56
2023/07/25 04:17:35;;;;;;;0.10;0.10;;;;;;;15.64;100.00;97951.06;5095442;28;20202;-56
2023/07/25 04:20:22;;;;;;;0.10;0.10;;;;;;;15.95;100.00;97954.00;5095406;28;20198;-56
2023/07/25 04:23:08;;;;;;;0.10;0.10;;;;;;;15.81;100.00;97958.13;5095035;28;20214;-56
2023/07/25 04:25:56;;;;;;;0.10;0.10;;;;;;;15.93;100.00;97959.53;5107377;28;20241;-56
2023/07/25 04:28:44;;;;;;;0.20;0.20;;;;;;;16.03;100.00;97952.22;5094922;28;20672;-56
2023/07/25 04:31:31;;;;;;;0.10;0.10;;;;;;;16.12;100.00;97942.38;5095038;28;20285;-56
2023/07/25 04:34:18;;;;;;;0.10;0.10;;;;;;;16.04;100.00;97942.34;5093887;28;20333;-56
2023/07/25 04:37:06;;;;;;;0.10;0.10;;;;;;;15.91;100.00;97942.78;5095159;28;20207;-56
2023/07/25 04:39:53;;;;;;;0.10;0.10;;;;;;;15.91;100.00;97947.31;5093115;28;20253;-56
2023/07/25 04:42:40;;;;;;;0.10;0.10;;;;;;;16.13;100.00;97951.22;5093814;28;20213;-56
2023/07/25 04:45:28;;;;;;;0.10;0.10;;;;;;;16.10;100.00;97946.19;5108352;28;20202;-56
2023/07/25 04:48:15;;;;;;;0.10;0.10;;;;;;;16.37;100.00;97950.44;5094736;28;20276;-56
2023/07/25 04:51:02;;;;;;;0.10;0.10;;;;;;;16.25;100.00;97950.75;5095022;28;20206;-56
2023/07/25 04:53:49;;;;;;;0.10;0.10;;;;;;;16.26;100.00;97954.25;5094651;28;20229;-56
2023/07/25 04:56:36;;;;;;;0.10;0.10;;;;;;;16.37;100.00;97953.09;5105836;28;20202;-56
2023/07/25 04:59:23;;;;;;;0.10;0.10;;;;;;;16.25;100.00;97961.44;5094636;28;20554;-56
2023/07/25 05:02:11;;;;;;;0.10;0.10;;;;;;;16.24;100.00;97964.28;5094693;28;20191;-56
2023/07/25 05:04:57;;;;;;;0.10;0.10;;;;;;;16.28;100.00;97969.13;5094360;28;20194;-56
2023/07/25 05:07:44;;;;;;;0.10;0.10;;;;;;;16.27;100.00;97966.63;5094378;28;20198;-56
2023/07/25 05:10:34;;;;;;;0.10;0.10;;;;;;;16.37;100.00;97972.66;5093139;28;20217;-56
2023/07/25 05:13:21;;;;;;;0.10;0.10;;;;;;;16.36;100.00;97980.84;5094175;28;20272;-56
2023/07/25 05:16:09;;;;;;;0.10;0.10;;;;;;;16.29;100.00;97984.16;5094298;28;20191;-56
2023/07/25 05:18:57;;;;;;;0.10;0.10;;;;;;;16.35;100.00;97985.34;5094137;28;20198;-57
2023/07/25 05:21:44;;;;;;;0.10;0.10;;;;;;;16.46;100.00;97987.72;5093923;28;20255;-56
2023/07/25 05:24:32;;;;;;;0.10;0.10;;;;;;;16.33;100.00;97982.00;5092709;28;20241;-56
2023/07/25 05:27:19;;;;;;;0.10;0.10;;;;;;;16.30;100.00;97993.00;5093557;28;20285;-56
2023/07/25 05:30:07;;;;;;;0.10;0.10;;;;;;;16.30;100.00;97996.50;5094012;28;20334;-57
2023/07/25 05:32:54;;;;;;;0.10;0.10;;;;;;;16.43;100.00;98006.75;5093011;28;20191;-56
2023/07/25 05:35:43;;;;;;;0.10;0.10;;;;;;;16.45;100.00;98010.09;5094027;28;20218;-57
2023/07/25 05:38:29;;;;;;;0.10;0.10;;;;;;;16.44;100.00;98002.25;5093778;28;20249;-57
2023/07/25 05:41:16;;;;;;;0.10;0.10;;;;;;;16.45;100.00;98007.41;5092395;28;20198;-56
2023/07/25 05:44:04;;;;;;;0.10;0.10;;;;;;;16.65;100.00;98005.28;5093530;28;20218;-56
2023/07/25 05:46:51;;;;;;;0.10;0.10;;;;;;;16.74;100.00;98000.81;5093669;28;20214;-56
2023/07/25 05:49:37;;;;;;;0.10;0.10;;;;;;;16.71;100.00;97998.47;5093771;28;20207;-56
2023/07/25 05:52:26;;;;;;;0.10;0.10;;;;;;;16.69;100.00;98000.47;5093314;28;20210;-56
2023/07/25 05:55:13;;;;;;;0.13;0.13;;;;;;;16.72;100.00;97995.63;5092344;28;20186;-56
2023/07/25 05:58:00;;;;;;;0.10;0.10;;;;;;;16.79;100.00;97991.31;5093662;28;20203;-56
2023/07/25 06:00:48;;;;;;;0.10;0.10;;;;;;;16.79;100.00;98006.50;5093527;28;20187;-56
2023/07/25 06:03:35;;;;;;;0.10;0.10;;;;;;;16.77;100.00;98003.16;5092311;28;20357;-56
2023/07/25 06:06:23;;;;;;;0.10;0.10;;;;;;;16.93;100.00;98002.34;5093082;28;20221;-57
2023/07/25 06:09:11;;;;;;;0.10;0.10;;;;;;;16.90;100.00;97995.50;5112859;28;20606;-56
2023/07/25 06:11:59;;;;;;;0.10;0.10;;;;;;;16.92;100.00;97998.00;5112715;28;20206;-57
2023/07/25 06:14:46;;;;;;;0.10;0.10;;;;;;;17.00;100.00;97980.09;5112903;28;20198;-56
2023/07/25 06:17:32;;;;;;;0.10;0.10;;;;;;;16.81;100.00;97980.44;5112844;28;20197;-57
2023/07/25 06:20:19;;;;;;;0.10;0.10;;;;;;;16.88;100.00;97981.41;5112561;28;20198;-56
2023/07/25 06:23:06;;;;;;;0.10;0.10;;;;;;;17.01;100.00;97984.44;5112260;28;20203;-57
2023/07/25 06:25:55;;;;;;;0.10;0.10;;;;;;;17.34;100.00;97982.56;5111255;28;20198;-56
2023/07/25 06:28:43;;;;;;;0.10;0.10;;;;;;;17.27;100.00;97981.56;5112308;28;20680;-56
2023/07/25 06:31:30;;;;;;;0.10;0.10;;;;;;;17.17;100.00;97975.56;5112613;28;20182;-57
2023/07/25 06:34:17;;;;;;;0.10;0.10;;;;;;;17.07;100.00;97982.94;5112166;28;20222;-56
2023/07/25 06:37:04;;;;;;;0.10;0.10;;;;;;;17.10;100.00;97974.59;5112345;28;20283;-56
2023/07/25 06:39:51;;;;;;;0.10;0.10;;;;;;;17.06;100.00;97968.72;5111386;28;20263;-57
2023/07/25 06:42:41;;;;;;;0.10;0.10;;;;;;;17.24;100.00;97967.69;5112300;28;20194;-57
2023/07/25 06:45:31;;;;;;;0.10;0.10;;;;;;;17.26;100.00;97969.19;5111110;28;20719;-57
2023/07/25 06:48:18;;;;;;;0.10;0.10;;;;;;;17.31;100.00;97969.53;5111367;28;20232;-57
2023/07/25 06:51:05;;;;;;;0.10;0.10;;;;;;;17.49;100.00;97960.47;5113832;28;20362;-56
2023/07/25 06:53:52;;;;;;;0.10;0.10;;;;;;;17.74;100.00;97956.72;5117419;28;20190;-57
2023/07/25 06:56:38;;;;;;;0.10;0.10;;;;;;;17.89;100.00;97955.00;5116102;28;20190;-57
2023/07/25 06:59:28;;;;;;;0.10;0.10;;;;;;;18.08;100.00;97947.56;5117507;28;20206;-57
2023/07/25 07:02:15;;;;;;;0.10;0.10;;;;;;;18.19;100.00;97944.47;5117367;28;20291;-57
2023/07/25 07:05:02;;;;;;;0.10;0.10;;;;;;;18.23;100.00;97943.94;5116971;28;20332;-57
2023/07/25 07:08:09;;;;;;;0.10;0.10;;;;;;;18.26;100.00;97937.41;5117005;28;20193;-57
2023/07/25 07:10:56;;;;;;;0.10;0.10;;;;;;;18.31;100.00;97929.66;5115824;28;20456;-56
2023/07/25 07:13:43;;;;;;;0.10;0.10;;;;;;;18.25;100.00;97925.00;5117342;28;20283;-57
2023/07/25 07:16:31;;;;;;;0.10;0.10;;;;;;;18.22;100.00;97920.81;5116962;28;20198;-57
2023/07/25 07:19:18;;;;;;;0.10;0.10;;;;;;;18.12;100.00;97938.13;5117043;28;20194;-57
2023/07/25 07:22:05;;;;;;;0.10;0.10;;;;;;;18.05;100.00;97940.69;5117170;28;20353;-57
2023/07/25 07:24:52;;;;;;;0.10;0.10;;;;;;;17.70;100.00;97953.56;5115321;28;20205;-57
2023/07/25 07:27:39;;;;;;;0.10;0.10;;;;;;;17.61;100.00;97956.41;5116898;28;20291;-57
2023/07/25 07:30:26;;;;;;;0.10;0.10;;;;;;;17.33;100.00;97958.66;5116844;28;20194;-57
2023/07/25 07:33:14;;;;;;;0.10;0.10;;;;;;;17.21;100.00;97976.91;5116452;28;20309;-57
2023/07/25 07:36:01;;;;;;;0.10;0.10;;;;;;;16.96;100.00;97980.59;5116636;28;20195;-57
2023/07/25 07:38:48;;;;;;;0.10;0.10;;;;;;;16.90;100.00;97983.97;5116696;28;20252;-57
2023/07/25 07:41:35;;;;;;;0.10;0.10;;;;;;;16.87;100.00;97983.25;5115111;28;20218;-57
2023/07/25 07:44:22;;;;;;;0.10;0.10;;;;;;;16.83;100.00;97997.97;5116408;28;20260;-57
2023/07/25 07:47:11;;;;;;;0.20;0.20;;;;;;;16.65;100.00;97997.25;5116623;28;20240;-57
2023/07/25 07:50:00;;;;;;;0.20;0.20;;;;;;;16.65;100.00;97996.44;5115862;28;20213;-57
2023/07/25 07:52:53;;;;;;;0.10;0.10;;;;;;;16.54;100.00;98005.59;5116422;28;20264;-57
2023/07/25 07:55:39;;;;;;;0.13;0.13;;;;;;;16.44;100.00;98011.09;5114975;28;20201;-57
2023/07/25 07:58:26;;;;;;;0.10;0.10;;;;;;;16.47;100.00;98018.78;5116209;28;20240;-57
2023/07/25 08:01:15;;;;;;;0.10;0.10;;;;;;;16.38;100.00;98014.41;5116041;28;20202;-57
2023/07/25 08:04:01;;;;;;;0.10;0.10;;;;;;;16.40;100.00;98024.94;5115324;28;20232;-57
2023/07/25 08:06:50;;;;;;;0.10;0.10;;;;;;;16.31;100.00;98021.44;5116096;28;20190;-57
2023/07/25 08:09:37;;;;;;;0.10;0.10;;;;;;;16.26;100.00;98029.91;5114894;28;20244;-57
2023/07/25 08:12:25;;;;;;;0.10;0.10;;;;;;;16.21;100.00;98029.56;5115926;28;20194;-57
2023/07/25 08:15:11;;;;;;;0.10;0.10;;;;;;;16.26;100.00;98037.94;5115854;28;20197;-57
2023/07/25 08:17:58;;;;;;;0.10;0.10;;;;;;;16.36;100.00;98051.16;5115773;28;20205;-57
2023/07/25 08:20:45;;;;;;;0.10;0.10;;;;;;;16.25;100.00;98059.47;5115814;28;20275;-57
2023/07/25 08:23:33;;;;;;;0.10;0.10;;;;;;;16.27;100.00;98066.31;5115785;28;20205;-57
2023/07/25 08:26:20;;;;;;;0.10;0.10;;;;;;;16.24;100.00;98066.66;5114353;28;20271;-57
2023/07/25 08:29:07;;;;;;;0.10;0.10;;;;;;;16.18;100.00;98072.63;5115184;28;20214;-57
2023/07/25 08:31:54;;;;;;;0.10;0.10;;;;;;;16.25;100.00;98073.66;5115571;28;20186;-57
2023/07/25 08:34:41;;;;;;;0.10;0.10;;;;;;;16.21;100.00;98079.47;5115299;28;20226;-57
2023/07/25 08:37:28;;;;;;;0.10;0.10;;;;;;;16.27;100.00;98070.81;5115489;28;20266;-57
2023/07/25 08:40:17;;;;;;;0.10;0.10;;;;;;;16.27;100.00;98078.84;5113573;28;20297;-57
2023/07/25 08:43:11;;;;;;;0.10;0.10;;;;;;;16.21;100.00;98083.00;5115367;28;20194;-57
2023/07/25 08:46:00;;;;;;;0.10;0.10;;;;;;;16.31;100.00;98078.38;5114862;28;20214;-56
2023/07/25 08:48:48;;;;;;;0.10;0.10;;;;;;;16.42;100.00;98082.59;5115467;28;20192;-57
2023/07/25 08:51:40;;;;;;;0.10;0.10;;;;;;;16.38;100.00;98075.03;5115208;28;20194;-57
2023/07/25 08:54:31;;;;;;;0.10;0.10;;;;;;;16.50;100.00;98079.09;5113757;28;20190;-57
2023/07/25 08:57:21;;;;;;;0.10;0.10;;;;;;;16.44;100.00;98077.06;5115292;28;20318;-57
2023/07/25 09:00:10;;;;;;;0.10;0.10;;;;;;;16.49;100.00;98072.91;5115007;28;20198;-57
2023/07/25 09:02:57;;;;;;;0.10;0.10;;;;;;;16.69;100.00;98083.34;5114900;28;20201;-57
2023/07/25 09:05:44;;;;;;;0.10;0.10;;;;;;;16.55;100.00;98076.78;5114816;28;20291;-57
2023/07/25 09:08:30;;;;;;;0.10;0.10;;;;;;;16.64;100.00;98078.47;5114942;28;20194;-57
2023/07/25 09:11:20;;;;;;;0.10;0.10;;;;;;;16.55;100.00;98080.28;5113431;28;20197;-57
2023/07/25 09:14:08;;;;;;;0.10;0.10;;;;;;;16.58;100.00;98066.59;5113660;28;20216;-57
2023/07/25 09:16:55;;;;;;;0.10;0.10;;;;;;;16.64;100.00;98067.78;5114700;28;20233;-57
2023/07/25 09:19:42;;;;;;;0.10;0.10;;;;;;;16.77;100.00;98068.16;5114655;28;20198;-57
2023/07/25 09:22:31;;;;;;;0.10;0.10;;;;;;;16.75;100.00;98064.81;5114544;28;20668;-57
2023/07/25 09:25:17;;;;;;;0.10;0.10;;;;;;;16.76;100.00;98054.97;5113057;28;20218;-57
2023/07/25 09:28:07;;;;;;;0.10;0.10;;;;;;;16.74;100.00;98056.97;5114423;28;20228;-57
2023/07/25 09:30:55;;;;;;;0.13;0.13;;;;;;;17.02;100.00;98060.19;5114486;28;20201;-57
2023/07/25 09:33:42;;;;;;;0.10;0.10;;;;;;;16.82;100.00;98052.47;5114259;28;20252;-57
2023/07/25 09:36:30;;;;;;;0.10;0.10;;;;;;;16.69;100.00;98051.25;5114248;28;20186;-57
2023/07/25 09:39:18;;;;;;;0.10;0.10;;;;;;;16.41;100.00;98058.69;5112934;28;20191;-57
2023/07/25 09:42:08;;;;;;;0.10;0.10;;;;;;;16.31;100.00;98057.00;5114204;28;20672;-57
2023/07/25 09:44:55;;;;;;;0.20;0.20;;;;;;;16.34;100.00;98055.00;5114193;28;20214;-57
2023/07/25 09:47:43;;;;;;;0.10;0.10;;;;;;;16.24;100.00;98057.81;5114121;28;20256;-57
2023/07/25 09:50:34;;;;;;;0.10;0.10;;;;;;;16.16;100.00;98047.91;5114154;28;20680;-57
2023/07/25 09:53:21;;;;;;;0.10;0.10;;;;;;;16.09;100.00;98049.53;5114110;28;20214;-57
2023/07/25 09:56:09;;;;;;;0.10;0.10;;;;;;;16.17;100.00;98040.72;5112685;28;20198;-56
2023/07/25 09:58:56;;;;;;;0.10;0.10;;;;;;;16.08;100.00;98033.69;5113923;28;20190;-57
2023/07/25 10:01:46;;;;;;;0.10;0.10;;;;;;;16.36;100.00;98037.78;5113787;28;20284;-57
2023/07/25 10:04:36;;;;;;;0.10;0.10;;;;;;;16.32;100.00;98039.13;5114014;28;20194;-57
2023/07/25 10:07:25;;;;;;;0.10;0.10;;;;;;;16.37;100.00;98039.47;5113614;28;20205;-57
2023/07/25 10:10:13;;;;;;;0.10;0.10;;;;;;;16.29;100.00;98039.44;5112558;28;20194;-57
2023/07/25 10:13:00;;;;;;;0.10;0.10;;;;;;;16.20;100.00;98038.56;5113820;28;20232;-57
2023/07/25 10:15:47;;;;;;;0.10;0.10;;;;;;;16.18;100.00;98029.88;5113558;28;20190;-57
2023/07/25 10:18:35;;;;;;;0.10;0.10;;;;;;;16.19;100.00;98031.53;5113901;28;20194;-57
2023/07/25 10:21:27;;;;;;;0.10;0.10;;;;;;;16.25;100.00;98027.41;5113577;28;20202;-57
2023/07/25 10:24:14;;;;;;;0.10;0.10;;;;;;;16.42;100.00;98021.13;5112574;28;20244;-57
2023/07/25 10:27:01;;;;;;;0.10;0.10;;;;;;;16.44;100.00;98018.28;5112960;28;20230;-57
2023/07/25 10:29:49;;;;;;;0.10;0.10;;;;;;;16.76;100.00;98021.03;5113525;28;20206;-57
2023/07/25 10:32:46;;;;;;;0.10;0.10;;;;;;;17.27;100.00;98007.50;5113359;28;20551;-57
2023/07/25 10:35:41;;;;;;;0.10;0.10;;;;;;;17.39;100.00;98015.03;5113073;28;20263;-57
2023/07/25 10:38:33;;;;;;;0.10;0.10;;;;;;;18.11;100.00;98006.16;5113017;28;20194;-57
2023/07/25 10:41:20;;;;;;;0.10;0.10;;;;;;;18.97;100.00;97989.88;5112109;28;20256;-57
2023/07/25 10:44:07;;;;;;;0.10;0.10;;;;;;;20.29;100.00;97988.34;5113390;28;20198;-57
2023/07/25 10:46:53;;;;;;;0.10;0.10;;;;;;;21.00;100.00;97989.34;5112901;28;20210;-57
2023/07/25 10:49:54;;;;;;;0.10;0.10;;;;;;;20.55;100.00;97985.13;5113380;28;20206;-57
2023/07/25 10:52:45;;;;;;;0.10;0.10;;;;;;;20.34;100.00;97987.78;5113310;28;20198;-57
2023/07/25 10:55:33;;;;;;;0.10;0.10;;;;;;;20.07;100.00;97989.28;5111739;28;20181;-57
2023/07/25 10:58:20;;;;;;;0.10;0.10;;;;;;;20.18;100.00;98000.44;5113222;28;20190;-57
2023/07/25 11:01:08;;;;;;;0.10;0.10;;;;;;;19.98;100.00;97994.78;5113131;28;20188;-57
2023/07/25 11:03:55;;;;;;;0.10;0.10;;;;;;;19.32;100.00;97996.47;5113006;28;20226;-58
2023/07/25 11:06:41;;;;;;;0.10;0.10;;;;;;;18.94;100.00;97998.31;5112889;28;20218;-57
2023/07/25 11:09:28;;;;;;;0.10;0.10;;;;;;;19.20;100.00;98000.59;5111783;28;20190;-57
2023/07/25 11:12:23;;;;;;;0.10;0.10;;;;;;;18.85;100.00;98010.13;5112890;28;20264;-57
2023/07/25 11:15:11;;;;;;;0.10;0.10;;;;;;;18.73;100.00;98008.88;5113059;28;20194;-57
2023/07/25 11:17:58;;;;;;;0.10;0.10;;;;;;;18.82;100.00;98010.47;5113076;28;20190;-57
2023/07/25 11:20:44;;;;;;;0.10;0.10;;;;;;;19.39;100.00;98010.81;5112994;28;20756;-57
2023/07/25 11:23:32;;;;;;;0.10;0.10;;;;;;;19.57;100.00;98005.13;5112992;28;20193;-58
2023/07/25 11:26:18;;;;;;;0.10;0.10;;;;;;;19.86;100.00;98015.06;5111468;28;20213;-57
2023/07/25 11:29:08;;;;;;;0.10;0.10;;;;;;;20.22;100.00;98019.69;5112466;28;20240;-57
2023/07/25 11:31:56;;;;;;;0.10;0.10;;;;;;;21.01;100.00;98000.94;5112873;28;20194;-57
2023/07/25 11:34:49;;;;;;;0.00;0.00;;;;;;;21.50;100.00;97998.25;5112609;28;20320;-58
2023/07/25 11:37:36;;;;;;;0.10;0.10;;;;;;;21.86;100.00;97994.56;5113423;28;20198;-58
2023/07/25 11:40:25;;;;;;;0.10;0.10;;;;;;;23.35;100.00;97999.00;5115283;28;20197;-58
2023/07/25 11:43:13;;;;;;;0.10;0.10;;;;;;;23.96;100.00;97992.50;5116196;28;20198;-58
2023/07/25 11:46:01;;;;;;;0.10;0.10;;;;;;;24.39;100.00;97992.78;5116431;28;20317;-57
2023/07/25 11:48:48;;;;;;;0.10;0.10;;;;;;;24.81;100.00;97990.50;5116506;28;20194;-57
2023/07/25 11:51:36;;;;;;;0.00;0.00;;;;;;;23.80;100.00;97998.38;5116502;28;20668;-57
2023/07/25 11:54:23;;;;;;;0.05;0.05;;;;;;;22.89;100.00;97998.97;5115185;28;20217;-57
2023/07/25 11:57:11;;;;;;;0.10;0.10;;;;;;;22.87;100.00;97998.31;5116290;28;20198;-57
2023/07/25 11:59:59;;;;;;;0.10;0.10;;;;;;;23.83;100.00;98000.63;5116187;28;20194;-58
2023/07/25 12:02:48;;;;;;;0.00;0.00;;;;;;;24.65;100.00;97999.13;5116234;28;20189;-57
2023/07/25 12:05:35;;;;;;;0.10;0.10;;;;;;;27.05;93.95;97990.09;5116216;28;20199;-58
2023/07/25 12:08:33;;;;;;;0.00;0.00;;;;;;;29.17;75.73;97979.75;5115970;28;20209;-56
2023/07/25 12:11:19;;;;;;;0.00;0.00;;;;;;;31.25;62.03;97984.44;5114749;28;20264;-56
2023/07/25 12:14:10;;;;;;;0.00;0.00;;;;;;;30.92;60.69;97985.50;5116011;28;20232;-56
2023/07/25 12:17:04;;;;;;;0.00;0.00;;;;;;;29.99;58.01;97995.50;5115854;28;20195;-56
2023/07/25 12:19:55;;;;;;;0.00;0.00;;;;;;;32.31;50.43;97986.31;5115920;28;20704;-55
2023/07/25 12:22:42;;;;;;;0.00;0.00;;;;;;;32.34;49.00;97986.63;5115696;28;20194;-56
2023/07/25 12:25:29;;;;;;;0.00;0.00;;;;;;;31.82;47.92;97986.56;5114570;28;20202;-56
2023/07/25 12:28:16;;;;;;;0.00;0.00;;;;;;;30.39;52.60;98003.44;5115406;28;20213;-56
2023/07/25 12:31:03;;;;;;;0.00;0.00;;;;;;;31.31;53.34;97997.09;5115633;28;20193;-55
2023/07/25 12:33:51;;;;;;;0.00;0.00;;;;;;;31.61;48.58;98008.31;5115422;28;20799;-56
2023/07/25 12:36:40;;;;;;;0.00;0.00;;;;;;;33.15;44.34;98004.41;5115620;28;20194;-56
2023/07/25 12:39:29;;;;;;;0.00;0.00;;;;;;;31.04;46.21;98003.38;5114124;28;20240;-56
2023/07/25 12:42:15;;;;;;;0.00;0.00;;;;;;;28.82;51.80;98009.88;5115482;28;20676;-55
2023/07/25 12:45:05;;;;;;;0.00;0.00;;;;;;;27.05;60.57;98019.19;5115223;28;20719;-55
2023/07/25 12:47:56;;;;;;;0.00;0.00;;;;;;;26.76;64.68;98016.19;5114843;28;20252;-55
2023/07/25 12:50:43;;;;;;;0.00;0.00;;;;;;;26.57;59.82;98016.47;5115256;28;20190;-55
2023/07/25 12:53:31;;;;;;;0.00;0.00;;;;;;;27.76;55.35;98010.06;5115321;28;20668;-55
2023/07/25 12:56:17;;;;;;;0.00;0.00;;;;;;;28.15;52.15;98018.56;5113762;28;20206;-55
2023/07/25 12:59:04;;;;;;;0.00;0.00;;;;;;;30.98;45.05;98014.53;5115115;28;20198;-56
2023/07/25 13:01:51;;;;;;;0.00;0.00;;;;;;;32.62;40.61;98014.66;5114908;28;20219;-56